createdAt,value
2024-01-11T00:00:21.821Z,103215.06
2024-01-11T00:02:55.183Z,103215.06
2024-01-11T00:05:28.998Z,103213.25
2024-01-11T00:08:02.913Z,103219.34
2024-01-11T00:10:29.682Z,103206.22
2024-01-11T00:13:03.102Z,103207.06
2024-01-11T00:15:29.853Z,103208.81
2024-01-11T00:18:03.177Z,103219.22
2024-01-11T00:20:30.157Z,103209.66
2024-01-11T00:23:03.865Z,103210.41
2024-01-11T00:25:30.588Z,103199.84
2024-01-11T00:28:03.819Z,103213.94
2024-01-11T00:30:30.561Z,103211.34
2024-01-11T00:33:04.142Z,103213.09
2024-01-11T00:35:30.997Z,103205.25
2024-01-11T00:38:03.967Z,103212.97
2024-01-11T00:40:30.672Z,103214.66
2024-01-11T00:42:57.299Z,103222.47
2024-01-11T00:45:30.839Z,103220.72
2024-01-11T00:48:04.065Z,103220.69
2024-01-11T00:50:30.826Z,103223.28
2024-01-11T00:53:03.891Z,103218.91
2024-01-11T00:55:37.961Z,103219.63
2024-01-11T00:58:04.700Z,103225.75
2024-01-11T01:00:37.824Z,103222.19
2024-01-11T01:03:17.921Z,103225.69
2024-01-11T01:05:51.107Z,103222.09
2024-01-11T01:08:19.110Z,103224.72
2024-01-11T01:10:55.478Z,103222.88
2024-01-11T01:13:22.440Z,103222.81
2024-01-11T01:15:55.868Z,103234.91
2024-01-11T01:18:22.666Z,103237.47
2024-01-11T01:20:55.910Z,103235.63
2024-01-11T01:23:22.696Z,103253.00
2024-01-11T01:25:56.870Z,103241.50
2024-01-11T01:28:29.845Z,103213.34
2024-01-11T01:31:02.890Z,103226.59
2024-01-11T01:33:36.053Z,103230.84
2024-01-11T01:36:02.868Z,103235.03
2024-01-11T01:38:37.932Z,103234.19
2024-01-11T01:41:04.675Z,103239.50
2024-01-11T01:43:37.907Z,103242.03
2024-01-11T01:46:06.831Z,103246.31
2024-01-11T01:48:42.395Z,103242.72
2024-01-11T01:51:09.574Z,103251.41
2024-01-11T01:53:43.066Z,103245.38
2024-01-11T01:56:10.195Z,103248.88
2024-01-11T01:58:43.924Z,103235.75
2024-01-11T02:01:12.147Z,103241.88
2024-01-11T02:03:53.991Z,103240.94
2024-01-11T02:06:24.697Z,103248.72
2024-01-11T02:09:00.851Z,103237.41
2024-01-11T02:11:28.333Z,103232.16
2024-01-11T02:14:01.963Z,103236.41
2024-01-11T02:16:34.943Z,103227.72
2024-01-11T02:19:01.770Z,103232.00
2024-01-11T02:21:36.894Z,103244.97
2024-01-11T02:24:08.043Z,103248.38
2024-01-11T02:26:42.010Z,103244.75
2024-01-11T02:29:08.827Z,103248.22
2024-01-11T02:31:41.920Z,103256.00
2024-01-11T02:34:08.725Z,103241.22
2024-01-11T02:36:42.169Z,103227.38
2024-01-11T02:39:09.299Z,103235.09
2024-01-11T02:41:47.267Z,103227.09
2024-01-11T02:44:20.901Z,103217.66
2024-01-11T02:46:47.704Z,103238.44
2024-01-11T02:49:21.230Z,103252.19
2024-01-11T02:51:47.968Z,103255.59
2024-01-11T02:54:20.895Z,103246.97
2024-01-11T02:56:48.057Z,103255.53
2024-01-11T02:59:20.935Z,103246.78
2024-01-11T03:01:47.763Z,103245.91
2024-01-11T03:04:27.950Z,103236.22
2024-01-11T03:06:54.645Z,103242.34
2024-01-11T03:09:34.932Z,103255.16
2024-01-11T03:12:01.777Z,103258.72
2024-01-11T03:14:35.009Z,103259.53
2024-01-11T03:17:02.804Z,103260.47
2024-01-11T03:19:29.588Z,103245.53
2024-01-11T03:22:02.960Z,103251.56
2024-01-11T03:24:35.916Z,103246.50
2024-01-11T03:27:08.889Z,103265.53
2024-01-11T03:29:35.687Z,103279.38
2024-01-11T03:32:08.948Z,103268.94
2024-01-11T03:34:35.826Z,103269.69
2024-01-11T03:37:08.917Z,103257.56
2024-01-11T03:39:36.273Z,103271.59
2024-01-11T03:42:10.919Z,103270.66
2024-01-11T03:44:38.634Z,103270.63
2024-01-11T03:47:12.017Z,103278.44
2024-01-11T03:49:38.803Z,103278.44
2024-01-11T03:52:11.906Z,103264.56
2024-01-11T03:54:38.570Z,103266.31
2024-01-11T03:57:11.929Z,103279.25
2024-01-11T03:59:45.016Z,103285.38
2024-01-11T04:02:11.800Z,103286.09
2024-01-11T04:04:52.088Z,103294.03
2024-01-11T04:07:18.776Z,103302.63
2024-01-11T04:09:51.926Z,103293.06
2024-01-11T04:12:18.672Z,103283.59
2024-01-11T04:14:54.372Z,103294.00
2024-01-11T04:17:21.084Z,103296.47
2024-01-11T04:19:53.921Z,103291.16
2024-01-11T04:22:20.718Z,103304.31
2024-01-11T04:24:53.905Z,103293.16
2024-01-11T04:27:26.872Z,103280.84
2024-01-11T04:29:59.989Z,103298.28
2024-01-11T04:32:33.088Z,103302.69
2024-01-11T04:35:05.932Z,103289.66
2024-01-11T04:37:39.926Z,103279.94
2024-01-11T04:40:08.571Z,103288.69
2024-01-11T04:42:41.968Z,103286.09
2024-01-11T04:45:08.952Z,103273.06
2024-01-11T04:47:42.743Z,103277.47
2024-01-11T04:50:09.866Z,103259.09
2024-01-11T04:52:42.899Z,103267.88
2024-01-11T04:55:09.779Z,103246.19
2024-01-11T04:57:43.127Z,103252.28
2024-01-11T05:00:10.200Z,103267.78
2024-01-11T05:02:49.939Z,103251.22
2024-01-11T05:05:23.131Z,103260.91
2024-01-11T05:07:55.970Z,103259.88
2024-01-11T05:10:22.686Z,103265.94
2024-01-11T05:12:55.905Z,103276.28
2024-01-11T05:15:29.983Z,103279.72
2024-01-11T05:17:58.245Z,103279.66
2024-01-11T05:20:31.902Z,103265.72
2024-01-11T05:22:58.525Z,103250.25
2024-01-11T05:25:31.909Z,103246.69
2024-01-11T05:28:05.897Z,103258.75
2024-01-11T05:30:39.056Z,103280.41
2024-01-11T05:33:06.114Z,103294.19
2024-01-11T05:35:39.944Z,103310.66
2024-01-11T05:38:22.017Z,103306.31
2024-01-11T05:41:01.941Z,103314.09
2024-01-11T05:43:34.924Z,103301.09
2024-01-11T05:46:01.762Z,103310.53
2024-01-11T05:48:34.985Z,103296.56
2024-01-11T05:51:07.965Z,103300.94
2024-01-11T05:53:42.976Z,103305.13
2024-01-11T05:56:11.165Z,103327.00
2024-01-11T05:58:45.927Z,103313.63
2024-01-11T06:01:12.915Z,103329.41
2024-01-11T06:03:47.019Z,103338.13
2024-01-11T06:06:20.296Z,103353.72
2024-01-11T06:08:53.945Z,103352.00
2024-01-11T06:11:20.887Z,103355.50
2024-01-11T06:13:54.966Z,103360.81
2024-01-11T06:16:21.650Z,103364.13
2024-01-11T06:18:55.048Z,103360.84
2024-01-11T06:21:21.811Z,103354.94
2024-01-11T06:23:55.969Z,103351.41
2024-01-11T06:26:24.002Z,103360.03
2024-01-11T06:28:57.068Z,103360.13
2024-01-11T06:31:29.917Z,103353.16
2024-01-11T06:33:56.634Z,103348.16
2024-01-11T06:36:29.986Z,103328.28
2024-01-11T06:38:56.709Z,103331.75
2024-01-11T06:41:29.994Z,103328.34
2024-01-11T06:43:59.976Z,103318.81
2024-01-11T06:46:35.048Z,103311.03
2024-01-11T06:49:02.079Z,103326.69
2024-01-11T06:51:35.943Z,103312.81
2024-01-11T06:54:02.990Z,103321.47
2024-01-11T06:56:36.038Z,103305.81
2024-01-11T06:59:09.055Z,103325.72
2024-01-11T07:01:41.989Z,103338.63
2024-01-11T07:04:14.975Z,103329.00
2024-01-11T07:06:48.144Z,103321.09
2024-01-11T07:09:21.966Z,103321.19
2024-01-11T07:11:48.911Z,103320.34
2024-01-11T07:14:22.035Z,103327.13
2024-01-11T07:16:48.843Z,103338.38
2024-01-11T07:19:30.045Z,103309.59
2024-01-11T07:21:56.836Z,103322.72
2024-01-11T07:24:29.984Z,103316.56
2024-01-11T07:26:56.771Z,103315.75
2024-01-11T07:29:31.081Z,103333.03
2024-01-11T07:31:57.859Z,103330.44
2024-01-11T07:34:32.045Z,103339.09
2024-01-11T07:37:05.988Z,103319.22
2024-01-11T07:39:33.157Z,103328.78
2024-01-11T07:42:05.984Z,103329.69
2024-01-11T07:44:33.528Z,103331.25
2024-01-11T07:47:07.058Z,103335.63
2024-01-11T07:49:33.859Z,103338.38
2024-01-11T07:52:07.018Z,103346.16
2024-01-11T07:54:34.112Z,103354.00
2024-01-11T07:57:07.982Z,103353.06
2024-01-11T07:59:37.342Z,103373.03
2024-01-11T08:02:18.024Z,103380.84
2024-01-11T08:04:51.285Z,103378.34
2024-01-11T08:07:28.153Z,103370.50
2024-01-11T08:10:04.346Z,103380.13
2024-01-11T08:12:41.221Z,103381.06
2024-01-11T08:15:16.452Z,103375.16
2024-01-11T08:17:49.403Z,103399.69
2024-01-11T08:20:23.140Z,103401.56
2024-01-11T08:22:55.961Z,103403.38
2024-01-11T08:25:28.977Z,103402.03
2024-01-11T08:27:55.823Z,103413.63
2024-01-11T08:30:29.058Z,103408.50
2024-01-11T08:32:57.063Z,103402.09
2024-01-11T08:35:30.051Z,103402.31
2024-01-11T08:37:56.762Z,103389.63
2024-01-11T08:40:30.021Z,103392.78
2024-01-11T08:42:56.835Z,103390.47
2024-01-11T08:45:30.005Z,103411.69
2024-01-11T08:47:58.101Z,103405.03
2024-01-11T08:50:32.106Z,103399.41
2024-01-11T08:53:05.052Z,103392.69
2024-01-11T08:55:31.874Z,103394.75
2024-01-11T08:58:05.069Z,103400.41
2024-01-11T09:00:31.796Z,103402.38
2024-01-11T09:03:05.146Z,103384.19
2024-01-11T09:05:38.165Z,103399.47
2024-01-11T09:08:15.058Z,103396.28
2024-01-11T09:10:43.143Z,103399.91
2024-01-11T09:13:17.035Z,103402.75
2024-01-11T09:15:44.312Z,103403.97
2024-01-11T09:18:17.275Z,103394.56
2024-01-11T09:20:44.323Z,103395.66
2024-01-11T09:23:18.036Z,103405.41
2024-01-11T09:25:45.021Z,103394.28
2024-01-11T09:28:18.084Z,103403.22
2024-01-11T09:30:51.105Z,103407.72
2024-01-11T09:33:18.066Z,103401.81
2024-01-11T09:35:51.047Z,103395.00
2024-01-11T09:38:17.729Z,103387.38
2024-01-11T09:40:51.037Z,103377.06
2024-01-11T09:43:18.012Z,103382.44
2024-01-11T09:45:52.030Z,103392.16
2024-01-11T09:48:21.804Z,103401.03
2024-01-11T09:50:55.994Z,103407.22
2024-01-11T09:53:24.624Z,103388.16
2024-01-11T09:56:59.366Z,103403.22
2024-01-11T09:59:34.903Z,103388.44
2024-01-11T10:02:27.426Z,103426.22
2024-01-11T10:05:11.695Z,103401.84
2024-01-11T10:07:53.940Z,103373.06
2024-01-11T10:10:21.486Z,103390.69
2024-01-11T10:13:14.103Z,103413.66
2024-01-11T10:16:19.648Z,103426.91
2024-01-11T10:18:53.173Z,103425.25
2024-01-11T10:21:20.352Z,103430.47
2024-01-11T10:23:54.043Z,103429.69
2024-01-11T10:26:22.931Z,103439.31
2024-01-11T10:28:56.268Z,103430.59
2024-01-11T10:31:28.826Z,103429.84
2024-01-11T10:34:02.098Z,103436.88
2024-01-11T10:36:32.246Z,103425.63
2024-01-11T10:39:09.054Z,103430.00
2024-01-11T10:41:42.873Z,103431.81
2024-01-11T10:44:32.101Z,103431.00
2024-01-11T10:47:00.494Z,103400.44
2024-01-11T10:49:34.073Z,103399.69
2024-01-11T10:52:10.030Z,103418.94
2024-01-11T10:54:39.586Z,103414.63
2024-01-11T10:57:13.034Z,103415.53
2024-01-11T10:59:44.177Z,103402.47
2024-01-11T11:02:20.124Z,103401.59
2024-01-11T11:04:55.573Z,103392.06
2024-01-11T11:07:29.053Z,103401.72
2024-01-11T11:10:07.682Z,103390.44
2024-01-11T11:12:47.731Z,103404.47
2024-01-11T11:15:53.291Z,103401.03
2024-01-11T11:18:35.684Z,103384.44
2024-01-11T11:21:19.431Z,103385.34
2024-01-11T11:24:21.658Z,103367.88
2024-01-11T11:27:05.344Z,103384.50
2024-01-11T11:29:58.192Z,103372.25
2024-01-11T11:33:30.334Z,103396.78
2024-01-11T11:40:09.551Z,103353.97
2024-01-11T11:47:10.258Z,103346.94
2024-01-11T11:50:06.295Z,103395.19
2024-01-11T11:52:43.125Z,103400.44
2024-01-11T11:55:17.097Z,103393.47
2024-01-11T11:57:44.349Z,103398.75
2024-01-11T12:00:20.096Z,103386.53
2024-01-11T12:02:56.796Z,103390.13
2024-01-11T12:05:30.587Z,103380.56
2024-01-11T12:08:04.105Z,103366.66
2024-01-11T12:10:31.053Z,103363.22
2024-01-11T12:13:04.104Z,103353.66
2024-01-11T12:15:30.879Z,103360.75
2024-01-11T12:18:07.160Z,103350.34
2024-01-11T12:20:34.635Z,103361.78
2024-01-11T12:23:10.082Z,103351.31
2024-01-11T12:25:37.568Z,103345.19
2024-01-11T12:28:04.610Z,103306.72
2024-01-11T12:30:39.395Z,103310.25
2024-01-11T12:33:07.183Z,103313.75
2024-01-11T12:35:41.118Z,103323.38
2024-01-11T12:38:14.108Z,103318.16
2024-01-11T12:40:48.094Z,103312.91
2024-01-11T12:43:15.162Z,103304.16
2024-01-11T12:45:49.097Z,103295.47
2024-01-11T12:48:24.344Z,103303.38
2024-01-11T12:50:53.675Z,103298.13
2024-01-11T12:53:32.133Z,103281.53
2024-01-11T12:56:18.285Z,103288.56
2024-01-11T12:58:47.757Z,103289.47
2024-01-11T13:01:22.145Z,103283.34
2024-01-11T13:04:02.092Z,103278.97
2024-01-11T13:06:43.245Z,103269.34
2024-01-11T13:09:16.103Z,103278.97
2024-01-11T13:11:49.207Z,103261.47
2024-01-11T13:14:20.704Z,103253.63
2024-01-11T13:16:56.070Z,103250.13
2024-01-11T13:19:27.245Z,103255.38
2024-01-11T13:22:01.125Z,103255.38
2024-01-11T13:24:27.824Z,103266.75
2024-01-11T13:27:01.173Z,103280.75
2024-01-11T13:29:34.167Z,103271.09
2024-01-11T13:32:08.237Z,103269.38
2024-01-11T13:34:41.124Z,103270.25
2024-01-11T13:37:07.843Z,103258.88
2024-01-11T13:39:41.078Z,103249.28
2024-01-11T13:42:10.799Z,103242.28
2024-01-11T13:44:44.207Z,103225.69
2024-01-11T13:47:11.133Z,103252.78
2024-01-11T13:49:44.325Z,103248.41
2024-01-11T13:52:17.128Z,103250.16
2024-01-11T13:54:45.260Z,103249.25
2024-01-11T13:57:19.159Z,103252.78
2024-01-11T13:59:46.228Z,103244.88
2024-01-11T14:02:20.218Z,103256.25
2024-01-11T14:05:00.129Z,103253.63
2024-01-11T14:07:33.569Z,103250.13
2024-01-11T14:10:07.109Z,103252.78
2024-01-11T14:12:40.112Z,103255.34
2024-01-11T14:15:19.084Z,103256.25
2024-01-11T14:17:46.034Z,103261.44
2024-01-11T14:20:21.179Z,103264.06
2024-01-11T14:22:57.154Z,103259.72
2024-01-11T14:25:35.140Z,103265.84
2024-01-11T14:28:01.911Z,103257.97
2024-01-11T14:30:35.223Z,103250.97
2024-01-11T14:33:02.038Z,103248.34
2024-01-11T14:35:29.094Z,103259.72
2024-01-11T14:38:02.143Z,103250.97
2024-01-11T14:40:28.816Z,103246.63
2024-01-11T14:43:02.166Z,103258.84
2024-01-11T14:45:29.182Z,103257.09
2024-01-11T14:48:02.335Z,103248.34
2024-01-11T14:50:29.843Z,103251.84
2024-01-11T14:53:03.185Z,103265.84
2024-01-11T14:55:30.006Z,103252.72
2024-01-11T14:58:03.182Z,103257.06
2024-01-11T15:00:36.178Z,103260.56
2024-01-11T15:03:03.708Z,103264.91
2024-01-11T15:05:37.181Z,103265.81
2024-01-11T15:08:04.212Z,103257.06
2024-01-11T15:10:38.187Z,103246.53
2024-01-11T15:13:04.984Z,103256.13
2024-01-11T15:15:40.001Z,103257.03
2024-01-11T15:18:14.325Z,103238.66
2024-01-11T15:20:47.132Z,103250.06
2024-01-11T15:23:20.182Z,103247.44
2024-01-11T15:25:47.142Z,103246.53
2024-01-11T15:28:20.176Z,103224.66
2024-01-11T15:30:47.035Z,103236.06
2024-01-11T15:33:21.257Z,103235.19
2024-01-11T15:35:49.707Z,103234.31
2024-01-11T15:38:24.144Z,103234.31
2024-01-11T15:40:50.815Z,103230.78
2024-01-11T15:43:17.507Z,103222.94
2024-01-11T15:45:51.186Z,103230.78
2024-01-11T15:48:24.336Z,103225.56
2024-01-11T15:50:58.196Z,103232.53
2024-01-11T15:53:24.912Z,103236.03
2024-01-11T15:55:59.163Z,103246.50
2024-01-11T15:58:25.913Z,103241.28
2024-01-11T16:00:59.155Z,103250.84
2024-01-11T16:03:25.996Z,103229.03
2024-01-11T16:06:06.306Z,103242.13
2024-01-11T16:08:33.461Z,103258.72
2024-01-11T16:11:07.225Z,103264.84
2024-01-11T16:13:33.884Z,103254.38
2024-01-11T16:16:07.137Z,103253.47
2024-01-11T16:18:36.118Z,103261.34
2024-01-11T16:21:09.143Z,103249.09
2024-01-11T16:23:36.080Z,103249.97
2024-01-11T16:26:09.275Z,103263.94
2024-01-11T16:28:43.184Z,103266.56
2024-01-11T16:31:16.203Z,103256.06
2024-01-11T16:33:49.209Z,103255.22
2024-01-11T16:36:25.306Z,103266.53
2024-01-11T16:38:58.260Z,103267.44
2024-01-11T16:41:32.277Z,103270.06
2024-01-11T16:44:05.220Z,103277.94
2024-01-11T16:46:32.054Z,103272.69
2024-01-11T16:49:07.249Z,103269.19
2024-01-11T16:51:34.154Z,103276.16
2024-01-11T16:54:07.256Z,103280.53
2024-01-11T16:56:33.969Z,103280.50
2024-01-11T16:59:07.221Z,103276.16
2024-01-11T17:01:40.209Z,103281.38
2024-01-11T17:04:13.362Z,103289.25
2024-01-11T17:06:53.212Z,103284.91
2024-01-11T17:09:19.887Z,103286.63
2024-01-11T17:11:53.243Z,103271.75
2024-01-11T17:14:20.100Z,103267.41
2024-01-11T17:16:53.196Z,103266.56
2024-01-11T17:19:20.202Z,103264.78
2024-01-11T17:21:54.208Z,103268.28
2024-01-11T17:24:21.123Z,103257.81
2024-01-11T17:26:54.289Z,103256.09
2024-01-11T17:29:27.283Z,103248.19
2024-01-11T17:31:54.085Z,103248.19
2024-01-11T17:34:27.302Z,103251.69
2024-01-11T17:36:54.281Z,103256.94
2024-01-11T17:39:28.284Z,103253.44
2024-01-11T17:41:55.056Z,103248.19
2024-01-11T17:44:30.308Z,103256.94
2024-01-11T17:47:03.148Z,103240.34
2024-01-11T17:49:36.267Z,103238.59
2024-01-11T17:52:03.143Z,103239.50
2024-01-11T17:54:36.214Z,103227.25
2024-01-11T17:57:03.111Z,103243.84
2024-01-11T17:59:36.298Z,103236.00
2024-01-11T18:02:03.836Z,103225.50
2024-01-11T18:04:44.334Z,103221.13
2024-01-11T18:07:18.021Z,103236.00
2024-01-11T18:09:51.251Z,103233.38
2024-01-11T18:12:24.208Z,103249.97
2024-01-11T18:14:51.233Z,103239.50
2024-01-11T18:17:24.211Z,103236.88
2024-01-11T18:19:51.185Z,103248.25
2024-01-11T18:22:24.253Z,103243.00
2024-01-11T18:24:50.937Z,103229.03
2024-01-11T18:27:24.203Z,103238.63
2024-01-11T18:29:51.006Z,103232.53
2024-01-11T18:32:24.315Z,103234.25
2024-01-11T18:34:57.369Z,103233.38
2024-01-11T18:37:25.442Z,103241.22
2024-01-11T18:39:58.271Z,103229.03
2024-01-11T18:42:25.498Z,103233.38
2024-01-11T18:44:59.407Z,103249.09
2024-01-11T18:47:26.365Z,103241.22
2024-01-11T18:49:59.219Z,103256.94
2024-01-11T18:52:26.338Z,103263.06
2024-01-11T18:55:08.322Z,103261.31
2024-01-11T18:57:42.958Z,103251.66
2024-01-11T19:00:18.197Z,103264.78
2024-01-11T19:02:46.864Z,103266.56
2024-01-11T19:05:20.554Z,103265.69
2024-01-11T19:07:47.999Z,103264.78
2024-01-11T19:10:21.292Z,103271.81
2024-01-11T19:12:54.269Z,103265.66
2024-01-11T19:15:21.387Z,103270.03
2024-01-11T19:17:55.364Z,103265.63
2024-01-11T19:20:29.997Z,103270.88
2024-01-11T19:23:03.239Z,103281.38
2024-01-11T19:25:33.173Z,103274.38
2024-01-11T19:28:08.257Z,103268.25
2024-01-11T19:30:35.275Z,103278.72
2024-01-11T19:33:11.362Z,103291.84
2024-01-11T19:35:38.196Z,103284.84
2024-01-11T19:38:11.248Z,103293.59
2024-01-11T19:40:37.989Z,103297.97
2024-01-11T19:43:11.253Z,103310.19
2024-01-11T19:45:38.098Z,103299.72
2024-01-11T19:48:12.463Z,103290.97
2024-01-11T19:50:39.584Z,103306.69
2024-01-11T19:53:14.444Z,103309.34
2024-01-11T19:55:41.912Z,103304.94
2024-01-11T19:58:08.765Z,103302.34
2024-01-11T20:00:46.324Z,103283.09
2024-01-11T20:03:13.161Z,103300.59
2024-01-11T20:05:46.358Z,103297.94
2024-01-11T20:08:19.698Z,103310.19
2024-01-11T20:10:54.278Z,103308.47
2024-01-11T20:13:21.034Z,103298.84
2024-01-11T20:16:01.394Z,103302.34
2024-01-11T20:18:29.726Z,103304.97
2024-01-11T20:21:04.386Z,103305.84
2024-01-11T20:23:37.307Z,103309.34
2024-01-11T20:26:10.336Z,103302.34
2024-01-11T20:28:36.995Z,103298.88
2024-01-11T20:31:10.407Z,103302.34
2024-01-11T20:33:44.581Z,103287.50
2024-01-11T20:36:11.368Z,103293.63
2024-01-11T20:38:44.451Z,103300.59
2024-01-11T20:41:13.739Z,103304.97
2024-01-11T20:43:49.296Z,103307.63
2024-01-11T20:46:22.875Z,103309.34
2024-01-11T20:48:56.419Z,103301.50
2024-01-11T20:51:23.141Z,103299.72
2024-01-11T20:53:58.277Z,103297.09
2024-01-11T20:56:25.879Z,103308.47
2024-01-11T20:58:59.261Z,103318.09
2024-01-11T21:01:26.004Z,103303.22
2024-01-11T21:03:59.438Z,103302.34
2024-01-11T21:06:33.514Z,103313.72
2024-01-11T21:09:00.719Z,103311.97
2024-01-11T21:11:34.309Z,103321.59
2024-01-11T21:14:00.987Z,103320.72
2024-01-11T21:16:34.308Z,103317.22
2024-01-11T21:19:01.298Z,103297.09
2024-01-11T21:21:34.328Z,103313.69
2024-01-11T21:24:02.701Z,103332.09
2024-01-11T21:26:36.301Z,103320.66
2024-01-11T21:29:02.999Z,103327.69
2024-01-11T21:31:39.344Z,103333.81
2024-01-11T21:34:06.145Z,103339.91
2024-01-11T21:36:41.273Z,103327.69
2024-01-11T21:39:15.307Z,103330.31
2024-01-11T21:41:42.081Z,103324.22
2024-01-11T21:44:15.318Z,103318.09
2024-01-11T21:46:42.469Z,103311.13
2024-01-11T21:49:16.366Z,103311.97
2024-01-11T21:51:43.715Z,103323.34
2024-01-11T21:54:10.448Z,103328.56
2024-01-11T21:56:43.364Z,103324.19
2024-01-11T21:59:10.149Z,103325.06
2024-01-11T22:01:49.340Z,103319.84
2024-01-11T22:04:16.172Z,103323.34
2024-01-11T22:06:56.540Z,103320.72
2024-01-11T22:09:23.361Z,103341.66
2024-01-11T22:11:56.408Z,103343.41
2024-01-11T22:14:23.343Z,103350.41
2024-01-11T22:16:57.331Z,103344.28
2024-01-11T22:19:24.236Z,103348.69
2024-01-11T22:21:57.341Z,103357.41
2024-01-11T22:24:23.982Z,103350.41
2024-01-11T22:26:57.325Z,103351.31
2024-01-11T22:29:24.047Z,103339.94
2024-01-11T22:31:57.408Z,103334.69
2024-01-11T22:34:24.554Z,103339.94
2024-01-11T22:36:58.359Z,103338.22
2024-01-11T22:39:31.432Z,103351.31
2024-01-11T22:42:05.127Z,103340.84
2024-01-11T22:44:38.398Z,103328.59
2024-01-11T22:47:06.866Z,103329.47
2024-01-11T22:49:40.394Z,103319.88
2024-01-11T22:52:07.733Z,103313.75
2024-01-11T22:54:42.341Z,103326.84
2024-01-11T22:57:09.201Z,103327.72
2024-01-11T22:59:42.411Z,103323.38
2024-01-11T23:02:16.417Z,103316.38
2024-01-11T23:04:51.261Z,103314.63
2024-01-11T23:07:31.430Z,103301.50
2024-01-11T23:10:04.325Z,103309.41
2024-01-11T23:12:31.000Z,103306.78
2024-01-11T23:15:04.517Z,103320.75
2024-01-11T23:17:38.559Z,103319.88
2024-01-11T23:20:08.470Z,103329.50
2024-01-11T23:22:43.316Z,103329.50
2024-01-11T23:25:10.268Z,103322.50
2024-01-11T23:27:43.418Z,103330.34
2024-01-11T23:30:10.655Z,103324.25
2024-01-11T23:32:46.421Z,103320.72
2024-01-11T23:35:13.452Z,103329.50
2024-01-11T23:37:46.381Z,103318.16
2024-01-11T23:40:19.365Z,103324.25
2024-01-11T23:42:52.402Z,103330.34
2024-01-11T23:45:22.579Z,103325.13
2024-01-11T23:47:55.426Z,103330.38
2024-01-11T23:50:25.531Z,103325.16
2024-01-11T23:52:59.416Z,103322.50
2024-01-11T23:55:33.465Z,103307.69
2024-01-11T23:58:06.464Z,103306.78
